Time;durP1;ratioP1;P1;durP2;ratioP2;P2;SDS_P1;SDS_P2;PMS_P1;PMS_P2;Temp;Humidity;BMP_temperature;BMP_pressure;BME280_temperature;BME280_humidity;BME280_pressure;Samples;Min_cycle;Max_cycle;Signal;HPM_P1;HPM_P2
2021/05/26 00:01:35;;;;;;;1.20;1.07;;;;;;;;;;10282925;28;20529;-64
2021/05/26 00:06:32;;;;;;;4.27;0.73;;;;;;;;;;10282787;28;20052;-65
2021/05/26 00:11:30;;;;;;;0.53;0.53;;;;;;;;;;10295219;28;20029;-64
2021/05/26 00:16:27;;;;;;;1.00;0.70;;;;;;;;;;10284984;28;20038;-64
2021/05/26 00:21:25;;;;;;;1.93;0.97;;;;;;;;;;10286473;28;20045;-64
2021/05/26 00:26:24;;;;;;;1.25;0.70;;;;;;;;;;10283018;28;20141;-63
2021/05/26 00:31:22;;;;;;;0.50;0.50;;;;;;;;;;10292598;28;20122;-63
2021/05/26 00:36:20;;;;;;;1.08;0.65;;;;;;;;;;10294095;28;20091;-64
2021/05/26 00:41:17;;;;;;;0.60;0.60;;;;;;;;;;10289240;28;20091;-64
2021/05/26 00:46:14;;;;;;;0.83;0.63;;;;;;;;;;10294522;28;20105;-64
2021/05/26 00:51:12;;;;;;;0.43;0.43;;;;;;;;;;10284609;28;20033;-63
2021/05/26 00:56:09;;;;;;;2.40;1.00;;;;;;;;;;10294242;28;20033;-64
2021/05/26 01:01:08;;;;;;;1.90;1.45;;;;;;;;;;10278138;28;20038;-61
2021/05/26 01:06:06;;;;;;;2.80;0.90;;;;;;;;;;10318759;28;20041;-63
2021/05/26 01:11:04;;;;;;;0.60;0.60;;;;;;;;;;10292683;28;20026;-63
2021/05/26 01:16:04;;;;;;;1.40;1.30;;;;;;;;;;10297010;28;20400;-63
2021/05/26 01:21:05;;;;;;;2.47;1.23;;;;;;;;;;10300477;28;20038;-63
2021/05/26 01:26:05;;;;;;;2.25;1.30;;;;;;;;;;10310348;28;20090;-63
2021/05/26 01:31:03;;;;;;;2.65;2.08;;;;;;;;;;10303015;28;20037;-63
2021/05/26 01:36:02;;;;;;;2.17;1.60;;;;;;;;;;10309487;28;20080;-62
2021/05/26 01:41:01;;;;;;;2.38;1.73;;;;;;;;;;10306369;28;20048;-61
2021/05/26 01:46:00;;;;;;;3.67;1.83;;;;;;;;;;10307676;28;20029;-63
2021/05/26 01:50:59;;;;;;;2.13;1.55;;;;;;;;;;10308385;28;20434;-63
2021/05/26 01:55:56;;;;;;;1.20;1.07;;;;;;;;;;10309147;28;20068;-64
2021/05/26 02:00:53;;;;;;;2.60;1.77;;;;;;;;;;10308692;28;20511;-63
2021/05/26 02:05:51;;;;;;;2.53;1.40;;;;;;;;;;10340388;28;20045;-62
2021/05/26 02:16:06;;;;;;;2.00;1.60;;;;;;;;;;10306236;28;20060;-62
2021/05/26 02:21:06;;;;;;;4.95;2.42;;;;;;;;;;10307636;28;20128;-61
2021/05/26 02:26:03;;;;;;;2.30;1.50;;;;;;;;;;10307388;28;20060;-62
2021/05/26 02:31:02;;;;;;;8.65;2.33;;;;;;;;;;10305704;28;20069;-62
2021/05/26 02:36:00;;;;;;;1.40;1.20;;;;;;;;;;10306797;28;20034;-63
2021/05/26 02:40:58;;;;;;;2.27;1.87;;;;;;;;;;10308283;28;20287;-63
2021/05/26 02:45:55;;;;;;;2.60;1.60;;;;;;;;;;10307028;28;20087;-62
2021/05/26 02:50:53;;;;;;;5.27;1.83;;;;;;;;;;10307221;28;20388;-62
2021/05/26 02:55:52;;;;;;;2.28;2.08;;;;;;;;;;10306536;28;20044;-62
2021/05/26 03:01:07;;;;;;;4.18;1.85;;;;;;;;;;10306550;28;20041;-63
2021/05/26 03:06:17;;;;;;;4.13;2.42;;;;;;;;;;10303758;28;20044;-60
2021/05/26 03:11:16;;;;;;;5.87;1.87;;;;;;;;;;10338181;28;20040;-61
2021/05/26 03:16:31;;;;;;;3.42;2.88;;;;;;;;;;10305797;28;20037;-61
2021/05/26 03:21:30;;;;;;;1.60;0.80;;;;;;;;;;10345079;28;20146;-62
2021/05/26 03:26:47;;;;;;;4.05;1.23;;;;;;;;;;10347078;28;20056;-62
2021/05/26 03:31:45;;;;;;;1.50;1.40;;;;;;;;;;10345999;28;20453;-61
2021/05/26 03:36:43;;;;;;;2.17;1.88;;;;;;;;;;10344613;28;20037;-62
2021/05/26 03:41:41;;;;;;;3.83;1.93;;;;;;;;;;10346143;28;20044;-62
2021/05/26 03:46:39;;;;;;;1.15;1.05;;;;;;;;;;10344334;28;20037;-60
2021/05/26 03:51:37;;;;;;;;;;;;;;;;;;10343288;28;20481;-61
2021/05/26 03:56:37;;;;;;;2.13;1.92;;;;;;;;;;10344465;28;19912;-59
2021/05/26 04:01:38;;;;;;;3.45;2.13;;;;;;;;;;10352038;28;20453;-60
2021/05/26 04:06:37;;;;;;;2.92;1.75;;;;;;;;;;10357596;28;20033;-61
2021/05/26 04:11:36;;;;;;;2.55;1.55;;;;;;;;;;10321889;28;20032;-62
2021/05/26 04:16:40;;;;;;;5.07;2.08;;;;;;;;;;10325382;28;20534;-62
2021/05/26 04:21:55;;;;;;;4.35;2.08;;;;;;;;;;10334698;28;20041;-63
2021/05/26 04:26:54;;;;;;;3.03;2.10;;;;;;;;;;10330569;28;21045;-64
2021/05/26 04:31:56;;;;;;;2.72;1.90;;;;;;;;;;10318505;28;20041;-62
2021/05/26 04:36:54;;;;;;;6.72;2.00;;;;;;;;;;10330734;28;20493;-63
2021/05/26 04:41:51;;;;;;;3.27;1.57;;;;;;;;;;10333580;28;20037;-62
2021/05/26 04:46:48;;;;;;;4.80;1.80;;;;;;;;;;10348881;28;20024;-62
2021/05/26 04:51:46;;;;;;;3.27;1.90;;;;;;;;;;10336541;28;20044;-63
2021/05/26 04:56:44;;;;;;;4.53;1.97;;;;;;;;;;10350197;28;20033;-63
2021/05/26 05:01:41;;;;;;;3.63;2.15;;;;;;;;;;10329408;28;20040;-61
2021/05/26 05:06:39;;;;;;;3.00;2.43;;;;;;;;;;10325525;28;20029;-62
2021/05/26 05:11:37;;;;;;;2.87;1.90;;;;;;;;;;10371315;28;20409;-61
2021/05/26 05:16:34;;;;;;;5.03;2.17;;;;;;;;;;10356474;28;20197;-62
2021/05/26 05:21:31;;;;;;;3.50;2.07;;;;;;;;;;10343164;28;20056;-63
2021/05/26 05:26:29;;;;;;;8.77;2.40;;;;;;;;;;10325287;28;20514;-62
2021/05/26 05:31:26;;;;;;;4.67;2.60;;;;;;;;;;10310860;28;20055;-62
2021/05/26 05:36:24;;;;;;;4.23;3.20;;;;;;;;;;10312331;28;20033;-62
2021/05/26 05:41:21;;;;;;;6.43;2.37;;;;;;;;;;10324053;28;20036;-64
2021/05/26 05:46:19;;;;;;;3.97;2.73;;;;;;;;;;10319053;28;20643;-62
2021/05/26 05:51:16;;;;;;;3.17;2.27;;;;;;;;;;10318393;28;20041;-63
2021/05/26 05:56:13;;;;;;;7.17;3.07;;;;;;;;;;10312944;28;20029;-63
2021/05/26 06:01:11;;;;;;;4.97;4.07;;;;;;;;;;10313538;28;20037;-63
2021/05/26 06:06:09;;;;;;;3.80;2.47;;;;;;;;;;10311126;28;20116;-63
2021/05/26 06:11:08;;;;;;;2.47;2.03;;;;;;;;;;10319911;28;20088;-62
2021/05/26 06:16:05;;;;;;;2.55;1.75;;;;;;;;;;10319068;28;20445;-63
2021/05/26 06:21:03;;;;;;;3.23;1.67;;;;;;;;;;10325822;28;20154;-63
2021/05/26 06:26:00;;;;;;;2.53;2.17;;;;;;;;;;10324968;28;20041;-61
2021/05/26 06:30:58;;;;;;;2.37;1.93;;;;;;;;;;10323682;28;20079;-62
2021/05/26 06:35:56;;;;;;;3.23;2.03;;;;;;;;;;10320217;28;20037;-63
2021/05/26 06:40:54;;;;;;;4.32;1.92;;;;;;;;;;10328757;28;20494;-61
2021/05/26 06:45:51;;;;;;;8.23;2.73;;;;;;;;;;10314444;28;20045;-61
2021/05/26 06:50:49;;;;;;;2.10;1.87;;;;;;;;;;10300682;28;20485;-61
2021/05/26 06:55:46;;;;;;;3.07;2.20;;;;;;;;;;10322098;28;20043;-60
2021/05/26 07:00:43;;;;;;;7.23;2.30;;;;;;;;;;10323147;28;20159;-60
2021/05/26 07:05:41;;;;;;;1.73;1.63;;;;;;;;;;10328232;28;20035;-61
2021/05/26 07:10:39;;;;;;;2.53;2.30;;;;;;;;;;10321125;28;20037;-60
2021/05/26 07:15:36;;;;;;;3.00;2.35;;;;;;;;;;10324656;28;20556;-60
2021/05/26 07:20:35;;;;;;;5.27;2.20;;;;;;;;;;10299529;28;20049;-63
2021/05/26 07:25:32;;;;;;;;;;;;;;;;;;10333322;28;20045;-61
2021/05/26 07:30:30;;;;;;;3.50;2.40;;;;;;;;;;10316670;28;19920;-60
2021/05/26 07:35:27;;;;;;;2.43;1.67;;;;;;;;;;10314293;28;20043;-61
2021/05/26 07:40:24;;;;;;;4.53;2.27;;;;;;;;;;10311261;28;20029;-62
2021/05/26 07:45:22;;;;;;;3.73;2.10;;;;;;;;;;10308571;28;20183;-62
2021/05/26 07:50:20;;;;;;;3.97;2.50;;;;;;;;;;10319750;28;20039;-62
2021/05/26 07:55:17;;;;;;;5.90;2.07;;;;;;;;;;10331083;28;20154;-62
2021/05/26 08:00:15;;;;;;;4.00;2.00;;;;;;;;;;10310562;28;20495;-62
2021/05/26 08:05:13;;;;;;;3.80;1.70;;;;;;;;;;10315796;28;20041;-63
2021/05/26 08:10:12;;;;;;;2.05;1.48;;;;;;;;;;10320709;28;20098;-62
2021/05/26 08:15:10;;;;;;;4.15;1.15;;;;;;;;;;10319539;28;20528;-62
2021/05/26 08:20:08;;;;;;;1.23;1.13;;;;;;;;;;10328831;28;20041;-62
2021/05/26 08:25:05;;;;;;;1.43;1.00;;;;;;;;;;10331386;28;20028;-61
2021/05/26 08:30:03;;;;;;;2.43;1.10;;;;;;;;;;10322231;28;20756;-62
2021/05/26 08:35:00;;;;;;;1.30;1.13;;;;;;;;;;10329888;28;20064;-63
2021/05/26 08:39:58;;;;;;;5.30;1.33;;;;;;;;;;10306443;28;20410;-62
2021/05/26 08:44:56;;;;;;;3.35;1.77;;;;;;;;;;10311782;28;20574;-62
2021/05/26 08:49:53;;;;;;;2.23;1.67;;;;;;;;;;10310874;28;20037;-63
2021/05/26 08:54:51;;;;;;;2.00;1.60;;;;;;;;;;10291399;28;20461;-64
2021/05/26 08:59:48;;;;;;;2.63;1.50;;;;;;;;;;10306208;28;20116;-60
2021/05/26 09:04:45;;;;;;;1.87;1.47;;;;;;;;;;10319140;28;20120;-62
2021/05/26 09:09:50;;;;;;;2.83;1.20;;;;;;;;;;10324950;28;20546;-62
2021/05/26 09:14:47;;;;;;;1.65;1.45;;;;;;;;;;10312886;28;20086;-62
2021/05/26 09:19:45;;;;;;;4.20;1.93;;;;;;;;;;10318665;28;20037;-63
2021/05/26 09:24:42;;;;;;;4.73;1.33;;;;;;;;;;10325651;28;20041;-62
2021/05/26 09:29:41;;;;;;;5.73;1.20;;;;;;;;;;10309582;28;20095;-61
2021/05/26 09:34:40;;;;;;;2.58;1.40;;;;;;;;;;10321372;28;20375;-63
2021/05/26 09:39:37;;;;;;;;;;;;;;;;;;10330625;28;20384;-63
2021/05/26 09:44:34;;;;;;;2.08;1.60;;;;;;;;;;10317674;28;20565;-62
2021/05/26 09:49:31;;;;;;;4.57;1.50;;;;;;;;;;10317448;28;20132;-63
2021/05/26 09:54:29;;;;;;;2.27;1.60;;;;;;;;;;10315299;28;20056;-63
2021/05/26 09:59:27;;;;;;;4.23;1.17;;;;;;;;;;10317904;28;20508;-63
2021/05/26 10:04:25;;;;;;;4.95;1.42;;;;;;;;;;10319474;28;20124;-62
2021/05/26 10:09:25;;;;;;;2.75;0.85;;;;;;;;;;10343794;28;20103;-60
2021/05/26 10:14:34;;;;;;;2.08;0.73;;;;;;;;;;10300302;28;20039;-61
2021/05/26 10:19:31;;;;;;;0.57;0.57;;;;;;;;;;10326403;28;20045;-61
2021/05/26 10:24:29;;;;;;;1.00;1.00;;;;;;;;;;10312659;28;20041;-62
2021/05/26 10:29:29;;;;;;;2.63;0.70;;;;;;;;;;10315524;28;20041;-62
2021/05/26 10:34:42;;;;;;;0.60;0.60;;;;;;;;;;10317036;28;20041;-62
2021/05/26 10:39:39;;;;;;;1.92;0.85;;;;;;;;;;10313803;28;20041;-62
2021/05/26 10:44:55;;;;;;;6.93;0.60;;;;;;;;;;10309951;28;20090;-62
2021/05/26 10:49:53;;;;;;;3.05;0.50;;;;;;;;;;10304792;28;20498;-63
2021/05/26 10:54:50;;;;;;;0.93;0.70;;;;;;;;;;10318667;28;20080;-63
2021/05/26 11:00:06;;;;;;;0.97;0.50;;;;;;;;;;10317664;28;20041;-63
2021/05/26 11:05:22;;;;;;;0.55;0.55;;;;;;;;;;10315633;28;20060;-63
2021/05/26 11:10:24;;;;;;;2.30;1.08;;;;;;;;;;10308214;28;20284;-61
2021/05/26 11:15:40;;;;;;;0.55;0.50;;;;;;;;;;10315200;28;20045;-61
2021/05/26 11:20:38;;;;;;;0.50;0.50;;;;;;;;;;10333908;28;20601;-61
2021/05/26 11:25:35;;;;;;;1.27;0.60;;;;;;;;;;10326189;28;20128;-61
2021/05/26 11:30:33;;;;;;;0.60;0.30;;;;;;;;;;10296224;28;20097;-60
2021/05/26 11:35:30;;;;;;;0.33;0.30;;;;;;;;;;10320566;28;20032;-60
2021/05/26 11:40:28;;;;;;;3.97;0.87;;;;;;;;;;10322505;28;21071;-62
2021/05/26 11:45:26;;;;;;;0.45;0.28;;;;;;;;;;10318202;28;20060;-61
2021/05/26 11:50:26;;;;;;;1.80;0.40;;;;;;;;;;10316218;28;20044;-61
2021/05/26 11:55:23;;;;;;;0.35;0.30;;;;;;;;;;10320938;28;20463;-61
2021/05/26 12:00:26;;;;;;;0.77;0.20;;;;;;;;;;10302628;28;20730;-60
2021/05/26 12:05:42;;;;;;;0.63;0.30;;;;;;;;;;10308728;28;20123;-61
2021/05/26 12:10:40;;;;;;;0.30;0.10;;;;;;;;;;10310544;28;20037;-62
2021/05/26 12:15:37;;;;;;;1.93;0.30;;;;;;;;;;10302296;28;20403;-63
2021/05/26 12:20:35;;;;;;;0.30;0.30;;;;;;;;;;10308554;28;20278;-62
2021/05/26 12:25:40;;;;;;;0.20;0.20;;;;;;;;;;10309725;28;20490;-62
2021/05/26 12:30:38;;;;;;;3.05;0.30;;;;;;;;;;10315480;28;20063;-63
2021/05/26 12:35:35;;;;;;;6.83;0.87;;;;;;;;;;10319300;28;20044;-63
2021/05/26 12:40:36;;;;;;;1.03;0.27;;;;;;;;;;10317107;28;20033;-63
2021/05/26 12:45:38;;;;;;;0.38;0.30;;;;;;;;;;10337021;28;20037;-63
2021/05/26 12:50:39;;;;;;;0.50;0.15;;;;;;;;;;10317663;28;20094;-63
2021/05/26 12:55:37;;;;;;;0.35;0.35;;;;;;;;;;10332479;28;20082;-64
2021/05/26 13:00:35;;;;;;;0.55;0.10;;;;;;;;;;10320005;28;20048;-63
2021/05/26 13:05:37;;;;;;;1.98;0.20;;;;;;;;;;10319462;28;20043;-63
2021/05/26 13:10:44;;;;;;;2.58;0.52;;;;;;;;;;10342026;28;20037;-63
2021/05/26 13:15:48;;;;;;;2.88;0.32;;;;;;;;;;10347571;28;20123;-63
2021/05/26 13:20:46;;;;;;;0.57;0.30;;;;;;;;;;10343474;28;20113;-63
2021/05/26 13:25:46;;;;;;;1.15;0.40;;;;;;;;;;10339439;28;20045;-63
2021/05/26 13:30:45;;;;;;;1.15;0.22;;;;;;;;;;10334802;28;20267;-63
2021/05/26 13:35:44;;;;;;;1.52;0.30;;;;;;;;;;10348132;28;20037;-64
2021/05/26 13:40:43;;;;;;;0.47;0.30;;;;;;;;;;10318286;28;20040;-63
2021/05/26 13:45:40;;;;;;;0.60;0.40;;;;;;;;;;10337308;28;20751;-63
2021/05/26 13:50:40;;;;;;;1.40;0.43;;;;;;;;;;10311374;28;20036;-63
2021/05/26 13:55:38;;;;;;;0.95;0.40;;;;;;;;;;10332526;28;20521;-63
2021/05/26 14:00:38;;;;;;;2.20;0.55;;;;;;;;;;10320825;28;20215;-63
2021/05/26 14:05:35;;;;;;;1.63;0.60;;;;;;;;;;10326133;28;20036;-63
2021/05/26 14:10:32;;;;;;;1.10;0.70;;;;;;;;;;10328400;28;20048;-63
2021/05/26 14:15:31;;;;;;;0.20;0.20;;;;;;;;;;10338295;28;20036;-62
2021/05/26 14:20:29;;;;;;;2.47;0.30;;;;;;;;;;10330213;28;20040;-63
2021/05/26 14:25:29;;;;;;;0.30;0.17;;;;;;;;;;10337062;28;20026;-63
2021/05/26 14:30:27;;;;;;;0.10;0.10;;;;;;;;;;10331831;28;20048;-64
2021/05/26 14:35:27;;;;;;;7.68;1.83;;;;;;;;;;10354251;28;20075;-63
2021/05/26 14:40:24;;;;;;;6.50;1.25;;;;;;;;;;10338221;28;20041;-65
2021/05/26 14:45:22;;;;;;;2.50;0.57;;;;;;;;;;10313244;28;20037;-64
2021/05/26 14:50:19;;;;;;;3.88;0.90;;;;;;;;;;10333641;28;20527;-65
2021/05/26 14:55:17;;;;;;;5.33;0.63;;;;;;;;;;10339665;28;20423;-64
2021/05/26 15:00:15;;;;;;;0.43;0.40;;;;;;;;;;10323191;28;20120;-64
2021/05/26 15:05:15;;;;;;;2.47;0.52;;;;;;;;;;10329149;28;20045;-64
2021/05/26 15:10:14;;;;;;;1.98;0.55;;;;;;;;;;10335239;28;20455;-62
2021/05/26 15:15:11;;;;;;;1.47;0.67;;;;;;;;;;10322778;28;20141;-65
2021/05/26 15:20:09;;;;;;;1.00;0.77;;;;;;;;;;10332511;28;20414;-64
2021/05/26 15:25:06;;;;;;;1.40;0.50;;;;;;;;;;10325730;28;20037;-65
2021/05/26 15:30:08;;;;;;;3.20;0.57;;;;;;;;;;10314104;28;20877;-65
2021/05/26 15:35:06;;;;;;;1.15;1.05;;;;;;;;;;10353938;28;20284;-66
2021/05/26 15:40:04;;;;;;;0.47;0.40;;;;;;;;;;10327914;28;20128;-66
2021/05/26 15:45:02;;;;;;;0.65;0.50;;;;;;;;;;10334283;28;20131;-66
2021/05/26 15:50:00;;;;;;;0.30;0.30;;;;;;;;;;10332529;28;20727;-64
2021/05/26 15:54:57;;;;;;;1.37;0.50;;;;;;;;;;10331718;28;20079;-64
2021/05/26 15:59:55;;;;;;;0.40;0.40;;;;;;;;;;10325955;28;20029;-64
2021/05/26 16:04:52;;;;;;;1.30;0.53;;;;;;;;;;10315853;28;20037;-64
2021/05/26 16:09:50;;;;;;;1.70;0.47;;;;;;;;;;10318058;28;20294;-64
2021/05/26 16:14:47;;;;;;;3.43;0.67;;;;;;;;;;10326741;28;20045;-64
2021/05/26 16:19:45;;;;;;;0.67;0.60;;;;;;;;;;10322707;28;20044;-63
2021/05/26 16:24:42;;;;;;;1.17;0.57;;;;;;;;;;10301619;28;20064;-65
2021/05/26 16:29:40;;;;;;;3.07;0.40;;;;;;;;;;10314028;28;20033;-64
2021/05/26 16:34:37;;;;;;;1.40;0.67;;;;;;;;;;10316149;28;20037;-64
2021/05/26 16:39:36;;;;;;;1.50;0.57;;;;;;;;;;10294246;28;20047;-64
2021/05/26 16:44:33;;;;;;;;;;;;;;;;;;10315141;28;21244;-64
2021/05/26 16:49:30;;;;;;;4.03;0.60;;;;;;;;;;10316091;28;19912;-64
2021/05/26 16:54:28;;;;;;;0.60;0.40;;;;;;;;;;10321690;28;20506;-63
2021/05/26 16:59:26;;;;;;;1.33;0.90;;;;;;;;;;10317086;28;20072;-65
2021/05/26 17:04:26;;;;;;;0.60;0.45;;;;;;;;;;10301952;28;20590;-64
2021/05/26 17:09:23;;;;;;;1.45;0.50;;;;;;;;;;10324019;28;20095;-64
2021/05/26 17:14:21;;;;;;;1.40;0.90;;;;;;;;;;10304336;28;20087;-64
2021/05/26 17:19:19;;;;;;;2.88;1.02;;;;;;;;;;10306207;28;20111;-62
2021/05/26 17:24:21;;;;;;;1.10;0.80;;;;;;;;;;10305786;28;20131;-62
2021/05/26 17:29:18;;;;;;;1.48;0.75;;;;;;;;;;10317676;28;20606;-65
2021/05/26 17:34:17;;;;;;;4.70;0.97;;;;;;;;;;10322455;28;20032;-64
2021/05/26 17:39:14;;;;;;;1.38;1.17;;;;;;;;;;10301914;28;20520;-63
2021/05/26 17:44:12;;;;;;;1.80;0.87;;;;;;;;;;10315062;28;20120;-63
2021/05/26 17:49:12;;;;;;;0.93;0.87;;;;;;;;;;10298035;28;20021;-65
2021/05/26 17:54:10;;;;;;;2.35;1.25;;;;;;;;;;10300558;28;20387;-63
2021/05/26 17:59:08;;;;;;;0.57;0.57;;;;;;;;;;10316701;28;20552;-64
2021/05/26 18:04:06;;;;;;;0.82;0.45;;;;;;;;;;10322771;28;20025;-64
2021/05/26 18:09:05;;;;;;;0.47;0.47;;;;;;;;;;10306121;28;20036;-64
2021/05/26 18:14:02;;;;;;;2.88;0.90;;;;;;;;;;10325583;28;20099;-64
2021/05/26 18:19:00;;;;;;;1.30;0.70;;;;;;;;;;10305793;28;20150;-64
2021/05/26 18:23:57;;;;;;;1.30;0.90;;;;;;;;;;10314623;28;20103;-63
2021/05/26 18:28:55;;;;;;;0.93;0.60;;;;;;;;;;10319643;28;20036;-63
2021/05/26 18:33:52;;;;;;;0.43;0.43;;;;;;;;;;10309224;28;20048;-63
2021/05/26 18:38:50;;;;;;;0.40;0.40;;;;;;;;;;10321027;28;20029;-62
2021/05/26 18:43:48;;;;;;;0.57;0.57;;;;;;;;;;10304537;28;20036;-63
2021/05/26 18:48:45;;;;;;;0.40;0.40;;;;;;;;;;10309262;28;20040;-63
2021/05/26 18:53:45;;;;;;;1.07;0.60;;;;;;;;;;10316598;28;20041;-62
2021/05/26 18:58:45;;;;;;;0.38;0.38;;;;;;;;;;10306366;28;20064;-62
2021/05/26 19:03:42;;;;;;;0.77;0.38;;;;;;;;;;10318391;28;20030;-62
2021/05/26 19:08:40;;;;;;;0.50;0.50;;;;;;;;;;10309012;28;20033;-61
2021/05/26 19:13:38;;;;;;;0.73;0.43;;;;;;;;;;10312901;28;20043;-63
2021/05/26 19:18:36;;;;;;;0.95;0.88;;;;;;;;;;10298601;28;20053;-63
2021/05/26 19:23:33;;;;;;;3.17;2.00;;;;;;;;;;10309157;28;20033;-63
2021/05/26 19:28:31;;;;;;;8.03;2.30;;;;;;;;;;10304140;28;20047;-64
2021/05/26 19:33:28;;;;;;;11.03;4.30;;;;;;;;;;10334132;28;20807;-62
2021/05/26 19:38:25;;;;;;;16.23;6.77;;;;;;;;;;10314605;28;20037;-63
2021/05/26 19:43:23;;;;;;;15.33;6.83;;;;;;;;;;10308430;28;20120;-65
2021/05/26 19:48:20;;;;;;;19.60;9.83;;;;;;;;;;10305341;28;20536;-65
2021/05/26 19:53:18;;;;;;;18.60;11.03;;;;;;;;;;10294328;28;20041;-63
2021/05/26 19:58:16;;;;;;;21.15;11.68;;;;;;;;;;10301442;28;20139;-65
2021/05/26 20:03:13;;;;;;;18.40;10.00;;;;;;;;;;10313177;28;20394;-64
2021/05/26 20:08:11;;;;;;;14.93;8.40;;;;;;;;;;10311863;28;20033;-64
2021/05/26 20:13:08;;;;;;;13.10;6.03;;;;;;;;;;10312061;28;20446;-63
2021/05/26 20:18:06;;;;;;;9.60;5.17;;;;;;;;;;10299567;28;20297;-63
2021/05/26 20:23:04;;;;;;;8.57;4.03;;;;;;;;;;10313672;28;20086;-63
2021/05/26 20:28:02;;;;;;;;;;;;;;;;;;10319277;28;20033;-65
2021/05/26 20:32:59;;;;;;;2.33;1.65;;;;;;;;;;10307383;28;19919;-64
2021/05/26 20:37:57;;;;;;;4.20;1.73;;;;;;;;;;10306682;28;20474;-64
2021/05/26 20:42:55;;;;;;;5.20;2.57;;;;;;;;;;10308894;28;20041;-62
2021/05/26 20:47:53;;;;;;;5.80;2.03;;;;;;;;;;10308290;28;20444;-65
2021/05/26 20:52:51;;;;;;;5.13;1.43;;;;;;;;;;10298598;28;20473;-65
2021/05/26 20:57:49;;;;;;;3.60;0.85;;;;;;;;;;10302821;28;20041;-63
2021/05/26 21:02:46;;;;;;;8.73;1.33;;;;;;;;;;10301814;28;20045;-63
2021/05/26 21:07:43;;;;;;;6.00;1.43;;;;;;;;;;10312185;28;20030;-63
2021/05/26 21:12:41;;;;;;;2.77;1.03;;;;;;;;;;10290121;28;20033;-63
2021/05/26 21:17:38;;;;;;;3.63;0.90;;;;;;;;;;10309494;28;20040;-63
2021/05/26 21:22:38;;;;;;;6.53;1.23;;;;;;;;;;10327942;28;20048;-63
2021/05/26 21:27:36;;;;;;;7.63;1.58;;;;;;;;;;10313062;28;20045;-63
2021/05/26 21:32:34;;;;;;;5.88;1.45;;;;;;;;;;10314059;28;20477;-63
2021/05/26 21:37:31;;;;;;;2.77;1.10;;;;;;;;;;10331887;28;20124;-64
2021/05/26 21:42:28;;;;;;;2.03;0.93;;;;;;;;;;10324624;28;20036;-63
2021/05/26 21:47:26;;;;;;;7.83;1.47;;;;;;;;;;10329234;28;20041;-64
2021/05/26 21:52:24;;;;;;;5.57;1.30;;;;;;;;;;10321204;28;20526;-64
2021/05/26 21:57:21;;;;;;;5.27;1.13;;;;;;;;;;10309373;28;20410;-63
2021/05/26 22:02:18;;;;;;;9.90;1.60;;;;;;;;;;10334527;28;20561;-63
2021/05/26 22:07:16;;;;;;;4.97;0.97;;;;;;;;;;10319253;28;20314;-63
2021/05/26 22:12:13;;;;;;;9.63;1.47;;;;;;;;;;10313516;28;20033;-62
2021/05/26 22:17:11;;;;;;;11.10;1.53;;;;;;;;;;10336847;28;20503;-63
2021/05/26 22:22:08;;;;;;;3.90;1.73;;;;;;;;;;10325978;28;20040;-62
2021/05/26 22:27:06;;;;;;;7.50;1.47;;;;;;;;;;10289831;28;20485;-63
2021/05/26 22:32:03;;;;;;;5.07;1.50;;;;;;;;;;10330385;28;20029;-66
2021/05/26 22:37:01;;;;;;;7.17;1.80;;;;;;;;;;10337909;28;20265;-66
2021/05/26 22:41:58;;;;;;;1.50;0.80;;;;;;;;;;10332109;28;20040;-65
2021/05/26 22:46:56;;;;;;;4.60;0.93;;;;;;;;;;10328250;28;20053;-64
2021/05/26 22:51:53;;;;;;;4.27;1.33;;;;;;;;;;10316073;28;20082;-64
2021/05/26 22:56:50;;;;;;;3.23;0.73;;;;;;;;;;10316656;28;20034;-65
2021/05/26 23:01:48;;;;;;;7.13;1.47;;;;;;;;;;10331411;28;20041;-64
2021/05/26 23:06:45;;;;;;;7.70;1.23;;;;;;;;;;10329020;28;20065;-64
2021/05/26 23:11:43;;;;;;;6.30;1.20;;;;;;;;;;10332850;28;20454;-65
2021/05/26 23:16:41;;;;;;;4.55;1.42;;;;;;;;;;10317807;28;20518;-64
2021/05/26 23:21:39;;;;;;;4.80;1.03;;;;;;;;;;10330805;28;20041;-64
2021/05/26 23:26:36;;;;;;;10.27;1.67;;;;;;;;;;10331503;28;20509;-65
2021/05/26 23:31:34;;;;;;;10.23;1.37;;;;;;;;;;10332623;28;20041;-64
2021/05/26 23:36:31;;;;;;;8.20;1.33;;;;;;;;;;10325544;28;20433;-65
2021/05/26 23:41:29;;;;;;;3.27;1.50;;;;;;;;;;10337427;28;20632;-65
2021/05/26 23:46:26;;;;;;;5.40;1.67;;;;;;;;;;10313404;28;20045;-64
2021/05/26 23:51:23;;;;;;;8.57;2.23;;;;;;;;;;10340087;28;20041;-64
2021/05/26 23:56:21;;;;;;;6.30;1.40;;;;;;;;;;10313346;28;20251;-64
